sensor_id;sensor_type;location;lat;lon;timestamp;temperature;humidity
7588;DHT22;3835;48.850;8.938;2023-04-30T00:02:02;10.30;99.90
7588;DHT22;3835;48.850;8.938;2023-04-30T00:04:29;10.30;99.90
7588;DHT22;3835;48.850;8.938;2023-04-30T00:06:56;10.30;99.90
7588;DHT22;3835;48.850;8.938;2023-04-30T00:09:22;10.30;99.90
7588;DHT22;3835;48.850;8.938;2023-04-30T00:11:49;10.30;99.90
7588;DHT22;3835;48.850;8.938;2023-04-30T00:14:16;10.30;99.90
7588;DHT22;3835;48.850;8.938;2023-04-30T00:16:44;10.20;99.90
7588;DHT22;3835;48.850;8.938;2023-04-30T00:19:11;10.30;99.90
7588;DHT22;3835;48.850;8.938;2023-04-30T00:21:38;10.30;99.90
7588;DHT22;3835;48.850;8.938;2023-04-30T00:24:05;10.30;99.90
7588;DHT22;3835;48.850;8.938;2023-04-30T00:26:31;10.30;99.90
7588;DHT22;3835;48.850;8.938;2023-04-30T00:28:58;10.30;99.90
7588;DHT22;3835;48.850;8.938;2023-04-30T00:31:25;10.30;99.90
7588;DHT22;3835;48.850;8.938;2023-04-30T00:33:53;10.20;99.90
7588;DHT22;3835;48.850;8.938;2023-04-30T00:36:20;10.20;99.90
7588;DHT22;3835;48.850;8.938;2023-04-30T00:38:47;10.20;99.90
7588;DHT22;3835;48.850;8.938;2023-04-30T00:41:14;10.20;99.90
7588;DHT22;3835;48.850;8.938;2023-04-30T00:43:41;10.20;99.90
7588;DHT22;3835;48.850;8.938;2023-04-30T00:46:08;10.20;99.90
7588;DHT22;3835;48.850;8.938;2023-04-30T00:48:35;10.20;99.90
7588;DHT22;3835;48.850;8.938;2023-04-30T00:51:03;10.20;99.90
7588;DHT22;3835;48.850;8.938;2023-04-30T00:53:31;10.20;99.90
7588;DHT22;3835;48.850;8.938;2023-04-30T00:55:58;10.10;99.90
7588;DHT22;3835;48.850;8.938;2023-04-30T00:58:25;10.20;99.90
7588;DHT22;3835;48.850;8.938;2023-04-30T01:00:52;10.10;99.90
7588;DHT22;3835;48.850;8.938;2023-04-30T01:03:19;10.10;99.90
7588;DHT22;3835;48.850;8.938;2023-04-30T01:05:47;10.10;99.90
7588;DHT22;3835;48.850;8.938;2023-04-30T01:08:15;10.10;99.90
7588;DHT22;3835;48.850;8.938;2023-04-30T01:10:47;10.10;99.90
7588;DHT22;3835;48.850;8.938;2023-04-30T01:13:23;10.10;99.90
7588;DHT22;3835;48.850;8.938;2023-04-30T01:15:56;10.10;99.90
7588;DHT22;3835;48.850;8.938;2023-04-30T01:18:28;10.00;99.90
7588;DHT22;3835;48.850;8.938;2023-04-30T01:20:58;10.00;99.90
7588;DHT22;3835;48.850;8.938;2023-04-30T01:23:40;10.10;99.90
7588;DHT22;3835;48.850;8.938;2023-04-30T01:26:12;10.00;99.90
7588;DHT22;3835;48.850;8.938;2023-04-30T01:28:42;9.90;99.90
7588;DHT22;3835;48.850;8.938;2023-04-30T01:31:13;10.00;99.90
7588;DHT22;3835;48.850;8.938;2023-04-30T01:33:40;9.90;99.90
7588;DHT22;3835;48.850;8.938;2023-04-30T01:36:17;9.90;99.90
7588;DHT22;3835;48.850;8.938;2023-04-30T01:39:05;9.90;99.90
7588;DHT22;3835;48.850;8.938;2023-04-30T01:41:39;9.90;99.90
7588;DHT22;3835;48.850;8.938;2023-04-30T01:44:23;9.90;99.90
7588;DHT22;3835;48.850;8.938;2023-04-30T01:47:00;9.90;99.90
7588;DHT22;3835;48.850;8.938;2023-04-30T01:49:35;9.90;99.90
7588;DHT22;3835;48.850;8.938;2023-04-30T01:52:11;9.90;99.90
7588;DHT22;3835;48.850;8.938;2023-04-30T01:54:44;9.80;99.90
7588;DHT22;3835;48.850;8.938;2023-04-30T02:00:00;9.80;99.90
7588;DHT22;3835;48.850;8.938;2023-04-30T02:02:29;9.80;99.90
7588;DHT22;3835;48.850;8.938;2023-04-30T02:04:56;9.80;99.90
7588;DHT22;3835;48.850;8.938;2023-04-30T02:07:35;9.80;99.90
7588;DHT22;3835;48.850;8.938;2023-04-30T02:10:03;9.80;99.90
7588;DHT22;3835;48.850;8.938;2023-04-30T02:12:30;9.80;99.90
7588;DHT22;3835;48.850;8.938;2023-04-30T02:14:57;9.80;99.90
7588;DHT22;3835;48.850;8.938;2023-04-30T02:17:25;9.80;99.90
7588;DHT22;3835;48.850;8.938;2023-04-30T02:19:52;9.80;99.90
7588;DHT22;3835;48.850;8.938;2023-04-30T02:22:19;9.70;99.90
7588;DHT22;3835;48.850;8.938;2023-04-30T02:24:45;9.70;99.90
7588;DHT22;3835;48.850;8.938;2023-04-30T02:27:12;9.70;99.90
7588;DHT22;3835;48.850;8.938;2023-04-30T02:29:39;9.70;99.90
7588;DHT22;3835;48.850;8.938;2023-04-30T02:32:06;9.60;99.90
7588;DHT22;3835;48.850;8.938;2023-04-30T02:34:34;9.60;99.90
7588;DHT22;3835;48.850;8.938;2023-04-30T02:37:01;9.60;99.90
7588;DHT22;3835;48.850;8.938;2023-04-30T02:39:28;9.60;99.90
7588;DHT22;3835;48.850;8.938;2023-04-30T02:41:55;9.60;99.90
7588;DHT22;3835;48.850;8.938;2023-04-30T02:44:21;9.50;99.90
7588;DHT22;3835;48.850;8.938;2023-04-30T02:46:48;9.50;99.90
7588;DHT22;3835;48.850;8.938;2023-04-30T02:49:15;9.50;99.90
7588;DHT22;3835;48.850;8.938;2023-04-30T02:51:43;9.50;99.90
7588;DHT22;3835;48.850;8.938;2023-04-30T02:54:10;9.40;99.90
7588;DHT22;3835;48.850;8.938;2023-04-30T02:56:37;9.40;99.90
7588;DHT22;3835;48.850;8.938;2023-04-30T02:59:04;9.50;99.90
7588;DHT22;3835;48.850;8.938;2023-04-30T03:01:31;9.40;99.90
7588;DHT22;3835;48.850;8.938;2023-04-30T03:03:58;9.40;99.90
7588;DHT22;3835;48.850;8.938;2023-04-30T03:06:25;9.40;99.90
7588;DHT22;3835;48.850;8.938;2023-04-30T03:08:53;9.40;99.90
7588;DHT22;3835;48.850;8.938;2023-04-30T03:11:19;9.30;99.90
7588;DHT22;3835;48.850;8.938;2023-04-30T03:13:47;9.30;99.90
7588;DHT22;3835;48.850;8.938;2023-04-30T03:16:16;9.20;99.90
7588;DHT22;3835;48.850;8.938;2023-04-30T03:18:43;9.30;99.90
7588;DHT22;3835;48.850;8.938;2023-04-30T03:21:10;9.20;99.90
7588;DHT22;3835;48.850;8.938;2023-04-30T03:23:37;9.20;99.90
7588;DHT22;3835;48.850;8.938;2023-04-30T03:26:05;9.20;99.90
7588;DHT22;3835;48.850;8.938;2023-04-30T03:28:32;9.20;99.90
7588;DHT22;3835;48.850;8.938;2023-04-30T03:31:00;9.20;99.90
7588;DHT22;3835;48.850;8.938;2023-04-30T03:33:29;9.20;99.90
7588;DHT22;3835;48.850;8.938;2023-04-30T03:35:56;9.10;99.90
7588;DHT22;3835;48.850;8.938;2023-04-30T03:38:23;9.00;99.90
7588;DHT22;3835;48.850;8.938;2023-04-30T03:40:50;8.90;99.90
7588;DHT22;3835;48.850;8.938;2023-04-30T03:43:18;8.90;99.90
7588;DHT22;3835;48.850;8.938;2023-04-30T03:45:45;8.90;99.90
7588;DHT22;3835;48.850;8.938;2023-04-30T03:48:12;8.90;99.90
7588;DHT22;3835;48.850;8.938;2023-04-30T03:50:39;8.80;99.90
7588;DHT22;3835;48.850;8.938;2023-04-30T03:53:06;8.80;99.90
7588;DHT22;3835;48.850;8.938;2023-04-30T03:55:33;8.80;99.90
7588;DHT22;3835;48.850;8.938;2023-04-30T03:58:00;8.80;99.90
7588;DHT22;3835;48.850;8.938;2023-04-30T04:00:28;8.80;99.90
7588;DHT22;3835;48.850;8.938;2023-04-30T04:02:56;8.70;99.90
7588;DHT22;3835;48.850;8.938;2023-04-30T04:05:23;8.70;99.90
7588;DHT22;3835;48.850;8.938;2023-04-30T04:07:50;8.80;99.90
7588;DHT22;3835;48.850;8.938;2023-04-30T04:10:17;8.80;99.90
7588;DHT22;3835;48.850;8.938;2023-04-30T04:12:44;8.80;99.90
7588;DHT22;3835;48.850;8.938;2023-04-30T04:15:11;8.80;99.90
7588;DHT22;3835;48.850;8.938;2023-04-30T04:17:39;8.80;99.90
7588;DHT22;3835;48.850;8.938;2023-04-30T04:20:07;8.90;99.90
7588;DHT22;3835;48.850;8.938;2023-04-30T04:22:34;8.90;99.90
7588;DHT22;3835;48.850;8.938;2023-04-30T04:25:01;8.90;99.90
7588;DHT22;3835;48.850;8.938;2023-04-30T04:27:28;8.90;99.90
7588;DHT22;3835;48.850;8.938;2023-04-30T04:29:54;8.90;99.90
7588;DHT22;3835;48.850;8.938;2023-04-30T04:32:21;8.90;99.90
7588;DHT22;3835;48.850;8.938;2023-04-30T04:34:50;8.90;99.90
7588;DHT22;3835;48.850;8.938;2023-04-30T04:37:18;8.90;99.90
7588;DHT22;3835;48.850;8.938;2023-04-30T04:39:45;8.90;99.90
7588;DHT22;3835;48.850;8.938;2023-04-30T04:42:13;8.90;99.90
7588;DHT22;3835;48.850;8.938;2023-04-30T04:44:41;9.00;99.90
7588;DHT22;3835;48.850;8.938;2023-04-30T04:47:08;9.00;99.90
7588;DHT22;3835;48.850;8.938;2023-04-30T04:49:37;9.10;99.90
7588;DHT22;3835;48.850;8.938;2023-04-30T04:52:05;9.20;99.90
7588;DHT22;3835;48.850;8.938;2023-04-30T04:54:32;9.20;99.90
7588;DHT22;3835;48.850;8.938;2023-04-30T04:56:59;9.20;99.90
7588;DHT22;3835;48.850;8.938;2023-04-30T04:59:25;9.30;99.90
7588;DHT22;3835;48.850;8.938;2023-04-30T05:01:52;9.30;99.90
7588;DHT22;3835;48.850;8.938;2023-04-30T05:04:19;9.40;99.90
7588;DHT22;3835;48.850;8.938;2023-04-30T05:06:46;9.50;99.90
7588;DHT22;3835;48.850;8.938;2023-04-30T05:09:14;9.60;99.90
7588;DHT22;3835;48.850;8.938;2023-04-30T05:11:41;9.80;99.90
7588;DHT22;3835;48.850;8.938;2023-04-30T05:14:09;10.00;99.90
7588;DHT22;3835;48.850;8.938;2023-04-30T05:16:35;10.20;99.90
7588;DHT22;3835;48.850;8.938;2023-04-30T05:19:02;10.30;99.90
7588;DHT22;3835;48.850;8.938;2023-04-30T05:21:29;10.30;99.90
7588;DHT22;3835;48.850;8.938;2023-04-30T05:23:56;10.30;99.90
7588;DHT22;3835;48.850;8.938;2023-04-30T05:26:24;10.30;99.90
7588;DHT22;3835;48.850;8.938;2023-04-30T05:28:51;10.20;99.90
7588;DHT22;3835;48.850;8.938;2023-04-30T05:31:18;10.20;99.90
7588;DHT22;3835;48.850;8.938;2023-04-30T05:33:45;10.10;99.90
7588;DHT22;3835;48.850;8.938;2023-04-30T05:36:12;10.20;99.90
7588;DHT22;3835;48.850;8.938;2023-04-30T05:38:39;10.20;99.90
7588;DHT22;3835;48.850;8.938;2023-04-30T05:41:06;10.20;99.90
7588;DHT22;3835;48.850;8.938;2023-04-30T05:43:34;10.30;99.90
7588;DHT22;3835;48.850;8.938;2023-04-30T05:46:01;10.40;99.90
7588;DHT22;3835;48.850;8.938;2023-04-30T05:48:28;10.40;99.90
7588;DHT22;3835;48.850;8.938;2023-04-30T05:50:55;10.60;99.90
7588;DHT22;3835;48.850;8.938;2023-04-30T05:53:22;10.60;99.90
7588;DHT22;3835;48.850;8.938;2023-04-30T05:55:49;10.70;99.90
7588;DHT22;3835;48.850;8.938;2023-04-30T05:58:16;10.80;99.90
7588;DHT22;3835;48.850;8.938;2023-04-30T06:00:48;10.90;99.90
7588;DHT22;3835;48.850;8.938;2023-04-30T06:03:14;11.00;99.90
7588;DHT22;3835;48.850;8.938;2023-04-30T06:05:41;11.10;99.90
7588;DHT22;3835;48.850;8.938;2023-04-30T06:08:08;11.30;99.90
7588;DHT22;3835;48.850;8.938;2023-04-30T06:10:36;11.40;99.90
7588;DHT22;3835;48.850;8.938;2023-04-30T06:13:03;11.50;99.90
7588;DHT22;3835;48.850;8.938;2023-04-30T06:15:30;11.60;99.90
7588;DHT22;3835;48.850;8.938;2023-04-30T06:17:58;11.60;99.90
7588;DHT22;3835;48.850;8.938;2023-04-30T06:20:25;11.50;99.90
7588;DHT22;3835;48.850;8.938;2023-04-30T06:22:52;11.60;99.90
7588;DHT22;3835;48.850;8.938;2023-04-30T06:25:19;11.60;99.90
7588;DHT22;3835;48.850;8.938;2023-04-30T06:27:46;11.50;99.90
7588;DHT22;3835;48.850;8.938;2023-04-30T06:30:13;11.40;99.90
7588;DHT22;3835;48.850;8.938;2023-04-30T06:32:40;11.30;99.90
7588;DHT22;3835;48.850;8.938;2023-04-30T06:35:08;11.60;99.90
7588;DHT22;3835;48.850;8.938;2023-04-30T06:37:35;11.90;99.90
7588;DHT22;3835;48.850;8.938;2023-04-30T06:40:03;11.90;99.90
7588;DHT22;3835;48.850;8.938;2023-04-30T06:42:30;12.10;99.90
7588;DHT22;3835;48.850;8.938;2023-04-30T06:44:59;12.20;99.90
7588;DHT22;3835;48.850;8.938;2023-04-30T06:47:27;12.10;99.90
7588;DHT22;3835;48.850;8.938;2023-04-30T06:49:54;12.10;99.90
7588;DHT22;3835;48.850;8.938;2023-04-30T06:52:22;12.10;99.90
7588;DHT22;3835;48.850;8.938;2023-04-30T06:54:49;12.20;99.90
7588;DHT22;3835;48.850;8.938;2023-04-30T06:57:15;12.30;99.90
7588;DHT22;3835;48.850;8.938;2023-04-30T06:59:42;12.60;99.90
7588;DHT22;3835;48.850;8.938;2023-04-30T07:02:09;12.20;99.90
7588;DHT22;3835;48.850;8.938;2023-04-30T07:04:36;12.10;99.90
7588;DHT22;3835;48.850;8.938;2023-04-30T07:07:03;12.20;99.90
7588;DHT22;3835;48.850;8.938;2023-04-30T07:09:31;12.10;99.90
7588;DHT22;3835;48.850;8.938;2023-04-30T07:11:58;12.00;99.90
7588;DHT22;3835;48.850;8.938;2023-04-30T07:14:25;12.00;99.90
7588;DHT22;3835;48.850;8.938;2023-04-30T07:16:52;12.00;99.90
7588;DHT22;3835;48.850;8.938;2023-04-30T07:19:19;11.80;99.90
7588;DHT22;3835;48.850;8.938;2023-04-30T07:21:46;12.30;99.90
7588;DHT22;3835;48.850;8.938;2023-04-30T07:24:12;12.30;99.90
7588;DHT22;3835;48.850;8.938;2023-04-30T07:26:41;12.30;99.90
7588;DHT22;3835;48.850;8.938;2023-04-30T07:29:07;12.30;99.90
7588;DHT22;3835;48.850;8.938;2023-04-30T07:31:34;12.50;99.90
7588;DHT22;3835;48.850;8.938;2023-04-30T07:34:01;12.60;99.90
7588;DHT22;3835;48.850;8.938;2023-04-30T07:36:28;12.90;99.90
7588;DHT22;3835;48.850;8.938;2023-04-30T07:38:55;13.10;99.90
7588;DHT22;3835;48.850;8.938;2023-04-30T07:41:23;13.30;99.90
7588;DHT22;3835;48.850;8.938;2023-04-30T07:43:52;13.30;99.90
7588;DHT22;3835;48.850;8.938;2023-04-30T07:46:18;13.30;99.90
7588;DHT22;3835;48.850;8.938;2023-04-30T07:48:45;13.40;99.90
7588;DHT22;3835;48.850;8.938;2023-04-30T07:51:12;13.70;99.90
7588;DHT22;3835;48.850;8.938;2023-04-30T07:53:39;13.80;99.90
7588;DHT22;3835;48.850;8.938;2023-04-30T07:56:06;13.40;99.90
7588;DHT22;3835;48.850;8.938;2023-04-30T07:58:33;13.40;99.90
7588;DHT22;3835;48.850;8.938;2023-04-30T08:01:01;13.50;99.90
7588;DHT22;3835;48.850;8.938;2023-04-30T08:03:28;13.30;99.90
7588;DHT22;3835;48.850;8.938;2023-04-30T08:05:55;13.30;99.90
7588;DHT22;3835;48.850;8.938;2023-04-30T08:08:22;13.50;99.90
7588;DHT22;3835;48.850;8.938;2023-04-30T08:10:48;13.60;99.90
7588;DHT22;3835;48.850;8.938;2023-04-30T08:13:15;13.90;99.90
7588;DHT22;3835;48.850;8.938;2023-04-30T08:15:42;14.10;99.90
7588;DHT22;3835;48.850;8.938;2023-04-30T08:18:10;14.00;99.90
7588;DHT22;3835;48.850;8.938;2023-04-30T08:20:37;14.10;99.90
7588;DHT22;3835;48.850;8.938;2023-04-30T08:23:04;14.20;99.90
7588;DHT22;3835;48.850;8.938;2023-04-30T08:25:31;13.90;99.90
7588;DHT22;3835;48.850;8.938;2023-04-30T08:27:57;13.80;99.90
7588;DHT22;3835;48.850;8.938;2023-04-30T08:30:24;14.20;99.90
7588;DHT22;3835;48.850;8.938;2023-04-30T08:32:51;14.40;99.90
7588;DHT22;3835;48.850;8.938;2023-04-30T08:35:19;14.50;99.90
7588;DHT22;3835;48.850;8.938;2023-04-30T08:37:46;14.70;99.90
7588;DHT22;3835;48.850;8.938;2023-04-30T08:40:13;14.30;99.90
7588;DHT22;3835;48.850;8.938;2023-04-30T08:42:45;14.10;99.90
7588;DHT22;3835;48.850;8.938;2023-04-30T08:45:12;14.50;99.90
7588;DHT22;3835;48.850;8.938;2023-04-30T08:47:40;14.50;99.90
7588;DHT22;3835;48.850;8.938;2023-04-30T08:50:08;14.60;99.90
7588;DHT22;3835;48.850;8.938;2023-04-30T08:52:38;14.70;99.90
7588;DHT22;3835;48.850;8.938;2023-04-30T08:55:07;14.40;99.90
7588;DHT22;3835;48.850;8.938;2023-04-30T08:57:35;14.50;99.90
7588;DHT22;3835;48.850;8.938;2023-04-30T09:00:03;14.20;99.90
7588;DHT22;3835;48.850;8.938;2023-04-30T09:02:31;13.90;99.90
7588;DHT22;3835;48.850;8.938;2023-04-30T09:04:58;13.90;99.90
7588;DHT22;3835;48.850;8.938;2023-04-30T09:07:26;14.10;99.90
7588;DHT22;3835;48.850;8.938;2023-04-30T09:09:54;14.30;99.90
7588;DHT22;3835;48.850;8.938;2023-04-30T09:12:22;14.30;99.90
7588;DHT22;3835;48.850;8.938;2023-04-30T09:14:59;14.60;99.90
7588;DHT22;3835;48.850;8.938;2023-04-30T09:17:26;14.80;99.90
7588;DHT22;3835;48.850;8.938;2023-04-30T09:19:53;15.10;99.90
7588;DHT22;3835;48.850;8.938;2023-04-30T09:22:22;15.20;99.90
7588;DHT22;3835;48.850;8.938;2023-04-30T09:24:50;15.00;99.90
7588;DHT22;3835;48.850;8.938;2023-04-30T09:27:20;14.90;99.90
7588;DHT22;3835;48.850;8.938;2023-04-30T09:29:48;14.80;99.90
7588;DHT22;3835;48.850;8.938;2023-04-30T09:32:15;14.80;99.90
7588;DHT22;3835;48.850;8.938;2023-04-30T09:34:42;14.70;99.90
7588;DHT22;3835;48.850;8.938;2023-04-30T09:37:09;14.60;99.90
7588;DHT22;3835;48.850;8.938;2023-04-30T09:39:46;14.50;99.90
7588;DHT22;3835;48.850;8.938;2023-04-30T09:42:14;14.40;99.90
7588;DHT22;3835;48.850;8.938;2023-04-30T09:44:42;14.80;99.90
7588;DHT22;3835;48.850;8.938;2023-04-30T09:47:13;14.80;99.90
7588;DHT22;3835;48.850;8.938;2023-04-30T09:49:41;14.80;99.90
7588;DHT22;3835;48.850;8.938;2023-04-30T09:52:09;14.70;99.90
7588;DHT22;3835;48.850;8.938;2023-04-30T09:54:37;14.70;99.90
7588;DHT22;3835;48.850;8.938;2023-04-30T09:57:08;14.70;99.90
7588;DHT22;3835;48.850;8.938;2023-04-30T09:59:36;14.70;99.90
7588;DHT22;3835;48.850;8.938;2023-04-30T10:02:06;14.70;99.90
7588;DHT22;3835;48.850;8.938;2023-04-30T10:04:35;15.20;99.90
7588;DHT22;3835;48.850;8.938;2023-04-30T10:07:05;15.50;99.90
7588;DHT22;3835;48.850;8.938;2023-04-30T10:09:38;15.30;99.90
7588;DHT22;3835;48.850;8.938;2023-04-30T10:12:10;15.40;99.90
7588;DHT22;3835;48.850;8.938;2023-04-30T10:14:39;15.30;99.90
7588;DHT22;3835;48.850;8.938;2023-04-30T10:17:12;15.30;99.90
7588;DHT22;3835;48.850;8.938;2023-04-30T10:19:44;15.40;99.90
7588;DHT22;3835;48.850;8.938;2023-04-30T10:22:12;15.40;99.90
7588;DHT22;3835;48.850;8.938;2023-04-30T10:24:40;15.10;99.90
7588;DHT22;3835;48.850;8.938;2023-04-30T10:27:07;14.90;99.90
7588;DHT22;3835;48.850;8.938;2023-04-30T10:29:34;14.70;99.90
7588;DHT22;3835;48.850;8.938;2023-04-30T10:32:00;14.70;99.90
7588;DHT22;3835;48.850;8.938;2023-04-30T10:34:40;14.80;99.90
7588;DHT22;3835;48.850;8.938;2023-04-30T10:37:14;14.90;99.90
7588;DHT22;3835;48.850;8.938;2023-04-30T10:39:45;15.00;99.90
7588;DHT22;3835;48.850;8.938;2023-04-30T10:42:12;15.00;99.90
7588;DHT22;3835;48.850;8.938;2023-04-30T10:44:39;15.20;99.90
7588;DHT22;3835;48.850;8.938;2023-04-30T10:47:07;15.40;99.90
7588;DHT22;3835;48.850;8.938;2023-04-30T10:49:35;15.50;99.90
7588;DHT22;3835;48.850;8.938;2023-04-30T10:52:03;15.60;99.90
7588;DHT22;3835;48.850;8.938;2023-04-30T10:54:31;15.90;99.90
7588;DHT22;3835;48.850;8.938;2023-04-30T10:57:09;15.90;99.90
7588;DHT22;3835;48.850;8.938;2023-04-30T10:59:36;15.80;99.90
7588;DHT22;3835;48.850;8.938;2023-04-30T11:02:03;16.00;99.90
7588;DHT22;3835;48.850;8.938;2023-04-30T11:04:31;16.10;99.90
7588;DHT22;3835;48.850;8.938;2023-04-30T11:07:08;15.80;99.90
7588;DHT22;3835;48.850;8.938;2023-04-30T11:09:38;15.90;99.90
7588;DHT22;3835;48.850;8.938;2023-04-30T11:12:10;16.00;99.90
7588;DHT22;3835;48.850;8.938;2023-04-30T11:14:40;16.00;99.90
7588;DHT22;3835;48.850;8.938;2023-04-30T11:17:09;16.00;99.90
7588;DHT22;3835;48.850;8.938;2023-04-30T11:19:45;15.90;99.90
7588;DHT22;3835;48.850;8.938;2023-04-30T11:22:19;15.80;99.90
7588;DHT22;3835;48.850;8.938;2023-04-30T11:24:55;15.90;99.90
7588;DHT22;3835;48.850;8.938;2023-04-30T11:27:27;16.00;99.90
7588;DHT22;3835;48.850;8.938;2023-04-30T11:29:55;15.80;99.90
7588;DHT22;3835;48.850;8.938;2023-04-30T11:32:23;15.70;99.90
7588;DHT22;3835;48.850;8.938;2023-04-30T11:34:50;15.70;99.90
7588;DHT22;3835;48.850;8.938;2023-04-30T11:37:36;15.80;99.90
7588;DHT22;3835;48.850;8.938;2023-04-30T11:40:18;16.00;99.90
7588;DHT22;3835;48.850;8.938;2023-04-30T11:42:47;16.10;99.90
7588;DHT22;3835;48.850;8.938;2023-04-30T11:45:15;16.00;99.90
7588;DHT22;3835;48.850;8.938;2023-04-30T11:47:46;16.10;99.90
7588;DHT22;3835;48.850;8.938;2023-04-30T11:50:14;16.20;99.90
7588;DHT22;3835;48.850;8.938;2023-04-30T11:52:48;16.20;99.90
7588;DHT22;3835;48.850;8.938;2023-04-30T11:55:17;16.30;99.90
7588;DHT22;3835;48.850;8.938;2023-04-30T11:57:46;16.50;99.90
7588;DHT22;3835;48.850;8.938;2023-04-30T12:00:14;16.10;99.90
7588;DHT22;3835;48.850;8.938;2023-04-30T12:02:42;15.80;99.90
7588;DHT22;3835;48.850;8.938;2023-04-30T12:05:14;16.10;99.90
7588;DHT22;3835;48.850;8.938;2023-04-30T12:07:47;16.10;99.90
7588;DHT22;3835;48.850;8.938;2023-04-30T12:10:14;16.30;99.90
7588;DHT22;3835;48.850;8.938;2023-04-30T12:12:42;16.60;99.90
7588;DHT22;3835;48.850;8.938;2023-04-30T12:15:14;16.70;99.90
7588;DHT22;3835;48.850;8.938;2023-04-30T12:17:41;16.60;99.90
7588;DHT22;3835;48.850;8.938;2023-04-30T12:20:10;16.60;99.90
7588;DHT22;3835;48.850;8.938;2023-04-30T12:22:37;16.00;99.90
7588;DHT22;3835;48.850;8.938;2023-04-30T12:25:08;16.00;99.90
7588;DHT22;3835;48.850;8.938;2023-04-30T12:27:38;16.10;99.90
7588;DHT22;3835;48.850;8.938;2023-04-30T12:30:07;16.20;99.90
7588;DHT22;3835;48.850;8.938;2023-04-30T12:32:38;16.10;99.90
7588;DHT22;3835;48.850;8.938;2023-04-30T12:35:07;16.00;99.90
7588;DHT22;3835;48.850;8.938;2023-04-30T12:37:34;15.80;99.90
7588;DHT22;3835;48.850;8.938;2023-04-30T12:40:01;15.80;99.90
7588;DHT22;3835;48.850;8.938;2023-04-30T12:42:33;15.90;99.90
7588;DHT22;3835;48.850;8.938;2023-04-30T12:45:01;15.80;99.90
7588;DHT22;3835;48.850;8.938;2023-04-30T12:47:28;15.60;99.90
7588;DHT22;3835;48.850;8.938;2023-04-30T12:49:55;15.70;99.90
7588;DHT22;3835;48.850;8.938;2023-04-30T12:52:24;15.80;99.90
7588;DHT22;3835;48.850;8.938;2023-04-30T12:54:52;15.90;99.90
7588;DHT22;3835;48.850;8.938;2023-04-30T12:57:20;16.00;99.90
7588;DHT22;3835;48.850;8.938;2023-04-30T12:59:59;16.00;99.90
7588;DHT22;3835;48.850;8.938;2023-04-30T13:02:29;16.00;99.90
7588;DHT22;3835;48.850;8.938;2023-04-30T13:04:57;15.90;99.90
7588;DHT22;3835;48.850;8.938;2023-04-30T13:07:25;16.10;99.90
7588;DHT22;3835;48.850;8.938;2023-04-30T13:09:51;16.20;99.90
7588;DHT22;3835;48.850;8.938;2023-04-30T13:12:19;16.20;99.90
7588;DHT22;3835;48.850;8.938;2023-04-30T13:14:46;16.10;99.90
7588;DHT22;3835;48.850;8.938;2023-04-30T13:17:19;16.30;99.90
7588;DHT22;3835;48.850;8.938;2023-04-30T13:20:17;16.40;99.90
7588;DHT22;3835;48.850;8.938;2023-04-30T13:23:06;16.50;99.90
7588;DHT22;3835;48.850;8.938;2023-04-30T13:25:35;16.70;99.90
7588;DHT22;3835;48.850;8.938;2023-04-30T13:28:02;16.80;99.90
7588;DHT22;3835;48.850;8.938;2023-04-30T13:30:29;16.60;99.90
7588;DHT22;3835;48.850;8.938;2023-04-30T13:36:18;16.70;99.90
7588;DHT22;3835;48.850;8.938;2023-04-30T13:38:52;16.60;99.90
7588;DHT22;3835;48.850;8.938;2023-04-30T13:42:03;16.40;99.90
7588;DHT22;3835;48.850;8.938;2023-04-30T13:44:43;16.30;99.90
7588;DHT22;3835;48.850;8.938;2023-04-30T13:47:20;16.40;99.90
7588;DHT22;3835;48.850;8.938;2023-04-30T13:49:47;16.50;99.90
7588;DHT22;3835;48.850;8.938;2023-04-30T13:52:15;16.50;99.90
7588;DHT22;3835;48.850;8.938;2023-04-30T13:54:41;16.70;99.90
7588;DHT22;3835;48.850;8.938;2023-04-30T13:57:08;16.80;99.90
7588;DHT22;3835;48.850;8.938;2023-04-30T13:59:35;16.70;99.90
7588;DHT22;3835;48.850;8.938;2023-04-30T14:02:03;16.30;99.90
7588;DHT22;3835;48.850;8.938;2023-04-30T14:04:29;16.00;99.90
7588;DHT22;3835;48.850;8.938;2023-04-30T14:06:56;16.00;99.90
7588;DHT22;3835;48.850;8.938;2023-04-30T14:09:24;16.10;99.90
7588;DHT22;3835;48.850;8.938;2023-04-30T14:11:51;16.10;99.90
7588;DHT22;3835;48.850;8.938;2023-04-30T14:14:20;16.00;99.90
7588;DHT22;3835;48.850;8.938;2023-04-30T14:16:47;15.80;99.90
7588;DHT22;3835;48.850;8.938;2023-04-30T14:19:13;15.80;99.90
7588;DHT22;3835;48.850;8.938;2023-04-30T14:21:40;15.70;99.90
7588;DHT22;3835;48.850;8.938;2023-04-30T14:24:08;15.90;99.90
7588;DHT22;3835;48.850;8.938;2023-04-30T14:26:38;16.00;99.90
7588;DHT22;3835;48.850;8.938;2023-04-30T14:29:05;16.00;99.90
7588;DHT22;3835;48.850;8.938;2023-04-30T14:31:32;16.00;99.90
7588;DHT22;3835;48.850;8.938;2023-04-30T14:33:58;16.00;99.90
7588;DHT22;3835;48.850;8.938;2023-04-30T14:36:25;15.90;99.90
7588;DHT22;3835;48.850;8.938;2023-04-30T14:38:52;16.10;99.90
7588;DHT22;3835;48.850;8.938;2023-04-30T14:41:19;16.10;99.90
7588;DHT22;3835;48.850;8.938;2023-04-30T14:43:47;15.90;99.90
7588;DHT22;3835;48.850;8.938;2023-04-30T14:46:14;15.80;99.90
7588;DHT22;3835;48.850;8.938;2023-04-30T14:48:41;15.80;99.90
7588;DHT22;3835;48.850;8.938;2023-04-30T14:51:08;16.00;99.90
7588;DHT22;3835;48.850;8.938;2023-04-30T14:53:35;16.10;99.90
7588;DHT22;3835;48.850;8.938;2023-04-30T14:56:02;16.20;99.90
7588;DHT22;3835;48.850;8.938;2023-04-30T14:58:31;16.30;99.90
7588;DHT22;3835;48.850;8.938;2023-04-30T15:00:59;16.20;99.90
7588;DHT22;3835;48.850;8.938;2023-04-30T15:03:26;16.00;99.90
7588;DHT22;3835;48.850;8.938;2023-04-30T15:05:53;16.00;99.90
7588;DHT22;3835;48.850;8.938;2023-04-30T15:08:20;16.10;99.90
7588;DHT22;3835;48.850;8.938;2023-04-30T15:10:47;16.10;99.90
7588;DHT22;3835;48.850;8.938;2023-04-30T15:13:14;16.40;99.90
7588;DHT22;3835;48.850;8.938;2023-04-30T15:15:41;16.30;99.90
7588;DHT22;3835;48.850;8.938;2023-04-30T15:18:09;16.10;99.90
7588;DHT22;3835;48.850;8.938;2023-04-30T15:20:36;16.20;99.90
7588;DHT22;3835;48.850;8.938;2023-04-30T15:23:02;16.20;99.90
7588;DHT22;3835;48.850;8.938;2023-04-30T15:25:30;16.10;99.90
7588;DHT22;3835;48.850;8.938;2023-04-30T15:27:57;16.00;99.90
7588;DHT22;3835;48.850;8.938;2023-04-30T15:30:24;16.10;99.90
7588;DHT22;3835;48.850;8.938;2023-04-30T15:32:51;16.10;99.90
7588;DHT22;3835;48.850;8.938;2023-04-30T15:35:19;16.10;99.90
7588;DHT22;3835;48.850;8.938;2023-04-30T15:37:46;16.20;99.90
7588;DHT22;3835;48.850;8.938;2023-04-30T15:40:12;16.10;99.90
7588;DHT22;3835;48.850;8.938;2023-04-30T15:42:39;16.20;99.90
7588;DHT22;3835;48.850;8.938;2023-04-30T15:45:07;16.10;99.90
7588;DHT22;3835;48.850;8.938;2023-04-30T15:47:35;16.10;99.90
7588;DHT22;3835;48.850;8.938;2023-04-30T15:50:01;16.20;99.90
7588;DHT22;3835;48.850;8.938;2023-04-30T15:52:30;16.10;99.90
7588;DHT22;3835;48.850;8.938;2023-04-30T15:54:56;15.90;99.90
7588;DHT22;3835;48.850;8.938;2023-04-30T15:57:23;15.80;99.90
7588;DHT22;3835;48.850;8.938;2023-04-30T15:59:50;15.70;99.90
7588;DHT22;3835;48.850;8.938;2023-04-30T16:02:17;15.70;99.90
7588;DHT22;3835;48.850;8.938;2023-04-30T16:04:43;15.80;99.90
7588;DHT22;3835;48.850;8.938;2023-04-30T16:07:10;15.90;99.90
7588;DHT22;3835;48.850;8.938;2023-04-30T16:09:39;15.80;99.90
7588;DHT22;3835;48.850;8.938;2023-04-30T16:12:06;15.70;99.90
7588;DHT22;3835;48.850;8.938;2023-04-30T16:14:33;15.70;99.90
7588;DHT22;3835;48.850;8.938;2023-04-30T16:16:59;15.70;99.90
7588;DHT22;3835;48.850;8.938;2023-04-30T16:19:27;15.50;99.90